sensor_id;sensor_type;location;lat;lon;timestamp;pressure;altitude;pressure_sealevel;temperature;humidity
24280;BME280;12395;42.808;23.408;2022-11-15T00:01:31;95505.50;;;3.26;100.00
24280;BME280;12395;42.808;23.408;2022-11-15T00:03:56;95501.47;;;3.13;100.00
24280;BME280;12395;42.808;23.408;2022-11-15T00:06:22;95514.34;;;3.25;100.00
24280;BME280;12395;42.808;23.408;2022-11-15T00:08:47;95500.13;;;3.09;100.00
24280;BME280;12395;42.808;23.408;2022-11-15T00:11:13;95481.00;;;2.99;100.00
24280;BME280;12395;42.808;23.408;2022-11-15T00:13:39;95505.88;;;3.13;100.00
24280;BME280;12395;42.808;23.408;2022-11-15T00:16:05;95496.28;;;3.04;100.00
24280;BME280;12395;42.808;23.408;2022-11-15T00:18:30;95497.44;;;3.01;100.00
24280;BME280;12395;42.808;23.408;2022-11-15T00:21:03;95498.38;;;3.00;100.00
24280;BME280;12395;42.808;23.408;2022-11-15T00:23:29;95484.22;;;2.76;100.00
24280;BME280;12395;42.808;23.408;2022-11-15T00:25:58;95509.88;;;2.90;100.00
24280;BME280;12395;42.808;23.408;2022-11-15T00:28:24;95492.56;;;2.79;100.00
24280;BME280;12395;42.808;23.408;2022-11-15T00:30:50;95497.81;;;2.79;100.00
24280;BME280;12395;42.808;23.408;2022-11-15T00:33:15;95498.91;;;2.77;100.00
24280;BME280;12395;42.808;23.408;2022-11-15T00:35:40;95496.47;;;2.75;100.00
24280;BME280;12395;42.808;23.408;2022-11-15T00:38:06;95495.28;;;2.87;100.00
24280;BME280;12395;42.808;23.408;2022-11-15T00:40:31;95486.22;;;2.82;100.00
24280;BME280;12395;42.808;23.408;2022-11-15T00:42:57;95470.53;;;2.82;100.00
24280;BME280;12395;42.808;23.408;2022-11-15T00:45:23;95487.19;;;2.81;100.00
24280;BME280;12395;42.808;23.408;2022-11-15T00:47:49;95490.78;;;2.80;100.00
24280;BME280;12395;42.808;23.408;2022-11-15T00:50:15;95490.41;;;2.75;100.00
24280;BME280;12395;42.808;23.408;2022-11-15T00:52:41;95486.28;;;2.72;100.00
24280;BME280;12395;42.808;23.408;2022-11-15T00:55:17;95486.13;;;2.74;100.00
24280;BME280;12395;42.808;23.408;2022-11-15T00:57:43;95482.69;;;2.73;100.00
24280;BME280;12395;42.808;23.408;2022-11-15T01:00:09;95479.00;;;2.66;100.00
24280;BME280;12395;42.808;23.408;2022-11-15T01:02:35;95475.81;;;2.72;100.00
24280;BME280;12395;42.808;23.408;2022-11-15T01:05:00;95480.09;;;2.73;100.00
24280;BME280;12395;42.808;23.408;2022-11-15T01:07:25;95479.66;;;2.78;100.00
24280;BME280;12395;42.808;23.408;2022-11-15T01:09:51;95478.25;;;2.74;100.00
24280;BME280;12395;42.808;23.408;2022-11-15T01:12:16;95467.69;;;2.75;100.00
24280;BME280;12395;42.808;23.408;2022-11-15T01:14:42;95453.75;;;2.75;100.00
24280;BME280;12395;42.808;23.408;2022-11-15T01:17:07;95452.06;;;2.83;100.00
24280;BME280;12395;42.808;23.408;2022-11-15T01:19:32;95466.03;;;2.74;100.00
24280;BME280;12395;42.808;23.408;2022-11-15T01:21:58;95460.69;;;2.66;100.00
24280;BME280;12395;42.808;23.408;2022-11-15T01:24:23;95457.69;;;2.61;100.00
24280;BME280;12395;42.808;23.408;2022-11-15T01:26:49;95462.34;;;2.67;100.00
24280;BME280;12395;42.808;23.408;2022-11-15T01:29:14;95465.34;;;2.72;100.00
24280;BME280;12395;42.808;23.408;2022-11-15T01:31:39;95462.66;;;2.55;100.00
24280;BME280;12395;42.808;23.408;2022-11-15T01:34:05;95462.41;;;2.48;100.00
24280;BME280;12395;42.808;23.408;2022-11-15T01:36:30;95469.66;;;2.64;100.00
24280;BME280;12395;42.808;23.408;2022-11-15T01:38:57;95474.50;;;2.59;100.00
24280;BME280;12395;42.808;23.408;2022-11-15T01:41:28;95477.41;;;2.56;100.00
24280;BME280;12395;42.808;23.408;2022-11-15T01:43:57;95477.00;;;2.51;100.00
24280;BME280;12395;42.808;23.408;2022-11-15T01:48:57;95463.00;;;2.42;100.00
24280;BME280;12395;42.808;23.408;2022-11-15T01:51:26;95471.84;;;2.41;100.00
24280;BME280;12395;42.808;23.408;2022-11-15T01:53:55;95467.47;;;2.32;100.00
24280;BME280;12395;42.808;23.408;2022-11-15T01:56:25;95456.34;;;2.20;100.00
24280;BME280;12395;42.808;23.408;2022-11-15T01:58:55;95456.22;;;2.22;100.00
24280;BME280;12395;42.808;23.408;2022-11-15T02:01:24;95454.13;;;2.25;100.00
24280;BME280;12395;42.808;23.408;2022-11-15T02:03:56;95453.44;;;2.33;100.00
24280;BME280;12395;42.808;23.408;2022-11-15T02:06:23;95456.75;;;2.25;100.00
24280;BME280;12395;42.808;23.408;2022-11-15T02:08:49;95447.69;;;2.20;100.00
24280;BME280;12395;42.808;23.408;2022-11-15T02:11:15;95441.13;;;2.16;100.00
24280;BME280;12395;42.808;23.408;2022-11-15T02:13:41;95451.28;;;2.19;100.00
24280;BME280;12395;42.808;23.408;2022-11-15T02:16:31;95452.63;;;2.23;100.00
24280;BME280;12395;42.808;23.408;2022-11-15T02:21:55;95455.66;;;2.18;100.00
24280;BME280;12395;42.808;23.408;2022-11-15T02:27:57;95451.00;;;2.22;100.00
24280;BME280;12395;42.808;23.408;2022-11-15T02:33:03;95445.47;;;2.25;100.00
24280;BME280;12395;42.808;23.408;2022-11-15T02:36:07;95453.88;;;2.19;100.00
24280;BME280;12395;42.808;23.408;2022-11-15T02:46:40;95454.88;;;2.18;100.00
24280;BME280;12395;42.808;23.408;2022-11-15T02:49:27;95447.97;;;2.17;100.00
24280;BME280;12395;42.808;23.408;2022-11-15T02:51:55;95449.63;;;2.18;100.00
24280;BME280;12395;42.808;23.408;2022-11-15T02:54:25;95448.75;;;2.27;100.00
24280;BME280;12395;42.808;23.408;2022-11-15T02:56:56;95451.56;;;2.16;100.00
24280;BME280;12395;42.808;23.408;2022-11-15T02:59:27;95460.47;;;2.23;100.00
24280;BME280;12395;42.808;23.408;2022-11-15T03:07:40;95450.00;;;2.23;100.00
24280;BME280;12395;42.808;23.408;2022-11-15T03:10:32;95448.91;;;2.25;100.00
24280;BME280;12395;42.808;23.408;2022-11-15T03:16:19;95454.53;;;2.30;100.00
24280;BME280;12395;42.808;23.408;2022-11-15T03:18:44;95448.22;;;2.33;100.00
24280;BME280;12395;42.808;23.408;2022-11-15T03:21:12;95439.91;;;2.38;100.00
24280;BME280;12395;42.808;23.408;2022-11-15T03:23:40;95437.41;;;2.46;100.00
24280;BME280;12395;42.808;23.408;2022-11-15T03:26:09;95440.19;;;2.62;100.00
24280;BME280;12395;42.808;23.408;2022-11-15T03:28:41;95441.13;;;2.70;100.00
24280;BME280;12395;42.808;23.408;2022-11-15T03:31:11;95431.78;;;2.68;100.00
24280;BME280;12395;42.808;23.408;2022-11-15T03:33:58;95440.16;;;2.71;100.00
24280;BME280;12395;42.808;23.408;2022-11-15T03:36:26;95443.03;;;2.78;100.00
24280;BME280;12395;42.808;23.408;2022-11-15T03:38:56;95440.78;;;2.83;100.00
24280;BME280;12395;42.808;23.408;2022-11-15T03:41:25;95458.38;;;2.90;100.00
24280;BME280;12395;42.808;23.408;2022-11-15T03:43:57;95438.78;;;2.94;100.00
24280;BME280;12395;42.808;23.408;2022-11-15T03:46:47;95435.41;;;3.02;100.00
24280;BME280;12395;42.808;23.408;2022-11-15T03:49:40;95431.00;;;3.02;100.00
24280;BME280;12395;42.808;23.408;2022-11-15T03:52:09;95430.28;;;3.10;100.00
24280;BME280;12395;42.808;23.408;2022-11-15T03:54:35;95428.66;;;2.99;100.00
24280;BME280;12395;42.808;23.408;2022-11-15T03:57:01;95434.44;;;3.03;100.00
24280;BME280;12395;42.808;23.408;2022-11-15T03:59:26;95432.34;;;3.06;100.00
24280;BME280;12395;42.808;23.408;2022-11-15T04:01:51;95410.66;;;2.96;100.00
24280;BME280;12395;42.808;23.408;2022-11-15T04:04:17;95425.72;;;3.12;100.00
24280;BME280;12395;42.808;23.408;2022-11-15T04:06:42;95421.59;;;3.09;100.00
24280;BME280;12395;42.808;23.408;2022-11-15T04:09:08;95422.41;;;3.10;100.00
24280;BME280;12395;42.808;23.408;2022-11-15T04:11:33;95427.56;;;3.20;100.00
24280;BME280;12395;42.808;23.408;2022-11-15T04:13:58;95415.97;;;3.22;100.00
24280;BME280;12395;42.808;23.408;2022-11-15T04:16:24;95431.59;;;3.32;100.00
24280;BME280;12395;42.808;23.408;2022-11-15T04:18:49;95420.78;;;3.27;100.00
24280;BME280;12395;42.808;23.408;2022-11-15T04:21:34;95419.50;;;3.31;100.00
24280;BME280;12395;42.808;23.408;2022-11-15T04:24:38;95427.13;;;3.42;100.00
24280;BME280;12395;42.808;23.408;2022-11-15T04:27:04;95425.47;;;3.41;100.00
24280;BME280;12395;42.808;23.408;2022-11-15T04:29:29;95418.72;;;3.38;100.00
24280;BME280;12395;42.808;23.408;2022-11-15T04:32:02;95423.06;;;3.47;100.00
24280;BME280;12395;42.808;23.408;2022-11-15T04:34:27;95408.91;;;3.40;100.00
24280;BME280;12395;42.808;23.408;2022-11-15T04:36:53;95415.88;;;3.49;100.00
24280;BME280;12395;42.808;23.408;2022-11-15T04:39:36;95395.69;;;3.42;100.00
24280;BME280;12395;42.808;23.408;2022-11-15T04:42:02;95408.56;;;3.53;100.00
24280;BME280;12395;42.808;23.408;2022-11-15T04:44:27;95415.94;;;3.57;100.00
24280;BME280;12395;42.808;23.408;2022-11-15T04:46:53;95387.16;;;3.40;100.00
24280;BME280;12395;42.808;23.408;2022-11-15T04:49:18;95411.91;;;3.63;100.00
24280;BME280;12395;42.808;23.408;2022-11-15T04:51:44;95410.56;;;3.59;100.00
24280;BME280;12395;42.808;23.408;2022-11-15T04:54:10;95414.19;;;3.66;100.00
24280;BME280;12395;42.808;23.408;2022-11-15T04:56:35;95411.53;;;3.58;100.00
24280;BME280;12395;42.808;23.408;2022-11-15T04:59:00;95412.50;;;3.57;100.00
24280;BME280;12395;42.808;23.408;2022-11-15T05:01:26;95420.22;;;3.58;100.00
24280;BME280;12395;42.808;23.408;2022-11-15T05:03:51;95413.47;;;3.56;100.00
24280;BME280;12395;42.808;23.408;2022-11-15T05:06:35;95420.22;;;3.58;100.00
24280;BME280;12395;42.808;23.408;2022-11-15T05:09:00;95419.75;;;3.63;100.00
24280;BME280;12395;42.808;23.408;2022-11-15T05:11:26;95427.25;;;3.58;100.00
24280;BME280;12395;42.808;23.408;2022-11-15T05:13:52;95414.25;;;3.48;100.00
24280;BME280;12395;42.808;23.408;2022-11-15T05:16:18;95421.66;;;3.53;100.00
24280;BME280;12395;42.808;23.408;2022-11-15T05:18:43;95371.84;;;3.27;100.00
24280;BME280;12395;42.808;23.408;2022-11-15T05:21:14;95423.50;;;3.60;100.00
24280;BME280;12395;42.808;23.408;2022-11-15T05:23:40;95423.88;;;3.65;100.00
24280;BME280;12395;42.808;23.408;2022-11-15T05:26:07;95422.22;;;3.64;100.00
24280;BME280;12395;42.808;23.408;2022-11-15T05:28:33;95420.88;;;3.60;100.00
24280;BME280;12395;42.808;23.408;2022-11-15T05:31:10;95417.28;;;3.61;100.00
24280;BME280;12395;42.808;23.408;2022-11-15T05:33:37;95419.44;;;3.66;100.00
24280;BME280;12395;42.808;23.408;2022-11-15T05:38:32;95399.03;;;3.52;100.00
24280;BME280;12395;42.808;23.408;2022-11-15T05:41:01;95407.31;;;3.65;100.00
24280;BME280;12395;42.808;23.408;2022-11-15T05:43:31;95405.59;;;3.73;100.00
24280;BME280;12395;42.808;23.408;2022-11-15T05:45:58;95403.25;;;3.70;100.00
24280;BME280;12395;42.808;23.408;2022-11-15T05:48:24;95402.19;;;3.81;100.00
24280;BME280;12395;42.808;23.408;2022-11-15T05:50:50;95390.56;;;3.83;100.00
24280;BME280;12395;42.808;23.408;2022-11-15T05:53:19;95412.78;;;3.97;100.00
24280;BME280;12395;42.808;23.408;2022-11-15T05:55:45;95412.41;;;3.92;100.00
24280;BME280;12395;42.808;23.408;2022-11-15T05:58:11;95419.31;;;3.93;100.00
24280;BME280;12395;42.808;23.408;2022-11-15T06:00:36;95421.69;;;4.04;100.00
24280;BME280;12395;42.808;23.408;2022-11-15T06:03:02;95421.72;;;4.12;100.00
24280;BME280;12395;42.808;23.408;2022-11-15T06:05:27;95413.84;;;4.12;100.00
24280;BME280;12395;42.808;23.408;2022-11-15T06:07:57;95420.44;;;4.16;100.00
24280;BME280;12395;42.808;23.408;2022-11-15T06:10:22;95411.22;;;4.12;100.00
24280;BME280;12395;42.808;23.408;2022-11-15T06:12:59;95417.44;;;4.11;100.00
24280;BME280;12395;42.808;23.408;2022-11-15T06:15:25;95423.16;;;4.07;100.00
24280;BME280;12395;42.808;23.408;2022-11-15T06:17:50;95423.97;;;4.07;100.00
24280;BME280;12395;42.808;23.408;2022-11-15T06:20:16;95426.31;;;4.10;100.00
24280;BME280;12395;42.808;23.408;2022-11-15T06:22:41;95437.13;;;4.15;100.00
24280;BME280;12395;42.808;23.408;2022-11-15T06:25:07;95409.91;;;4.08;100.00
24280;BME280;12395;42.808;23.408;2022-11-15T06:27:32;95426.50;;;4.17;100.00
24280;BME280;12395;42.808;23.408;2022-11-15T06:29:57;95433.22;;;4.19;100.00
24280;BME280;12395;42.808;23.408;2022-11-15T06:32:23;95421.28;;;4.25;100.00
24280;BME280;12395;42.808;23.408;2022-11-15T06:34:48;95432.47;;;4.35;100.00
24280;BME280;12395;42.808;23.408;2022-11-15T06:37:13;95424.63;;;4.35;100.00
24280;BME280;12395;42.808;23.408;2022-11-15T06:39:39;95412.63;;;4.32;100.00
24280;BME280;12395;42.808;23.408;2022-11-15T06:42:04;95420.56;;;4.40;100.00
24280;BME280;12395;42.808;23.408;2022-11-15T06:44:30;95414.69;;;4.46;100.00
24280;BME280;12395;42.808;23.408;2022-11-15T06:46:55;95432.91;;;4.56;100.00
24280;BME280;12395;42.808;23.408;2022-11-15T06:49:20;95434.22;;;4.60;100.00
24280;BME280;12395;42.808;23.408;2022-11-15T06:51:46;95432.63;;;4.67;100.00
24280;BME280;12395;42.808;23.408;2022-11-15T06:54:11;95417.72;;;4.67;100.00
24280;BME280;12395;42.808;23.408;2022-11-15T06:56:36;95403.94;;;4.65;100.00
24280;BME280;12395;42.808;23.408;2022-11-15T06:59:02;95405.25;;;4.69;100.00
24280;BME280;12395;42.808;23.408;2022-11-15T07:01:27;95419.25;;;4.86;100.00
24280;BME280;12395;42.808;23.408;2022-11-15T07:03:53;95429.75;;;4.94;100.00
24280;BME280;12395;42.808;23.408;2022-11-15T07:06:18;95416.78;;;4.93;100.00
24280;BME280;12395;42.808;23.408;2022-11-15T07:08:43;95419.97;;;5.04;100.00
24280;BME280;12395;42.808;23.408;2022-11-15T07:11:09;95414.88;;;5.11;100.00
24280;BME280;12395;42.808;23.408;2022-11-15T07:13:35;95411.44;;;5.18;100.00
24280;BME280;12395;42.808;23.408;2022-11-15T07:16:06;95409.31;;;5.30;100.00
24280;BME280;12395;42.808;23.408;2022-11-15T07:18:34;95403.25;;;5.29;100.00
24280;BME280;12395;42.808;23.408;2022-11-15T07:21:01;95406.69;;;5.38;100.00
24280;BME280;12395;42.808;23.408;2022-11-15T07:23:27;95406.69;;;5.54;100.00
24280;BME280;12395;42.808;23.408;2022-11-15T07:25:52;95408.81;;;5.67;100.00
24280;BME280;12395;42.808;23.408;2022-11-15T07:28:18;95404.22;;;5.77;100.00
24280;BME280;12395;42.808;23.408;2022-11-15T07:30:43;95410.81;;;5.89;100.00
24280;BME280;12395;42.808;23.408;2022-11-15T07:33:08;95405.72;;;5.95;100.00
24280;BME280;12395;42.808;23.408;2022-11-15T07:35:34;95397.19;;;5.93;100.00
24280;BME280;12395;42.808;23.408;2022-11-15T07:38:01;95416.22;;;6.11;100.00
24280;BME280;12395;42.808;23.408;2022-11-15T07:40:28;95413.25;;;6.14;100.00
24280;BME280;12395;42.808;23.408;2022-11-15T07:43:01;95418.00;;;6.19;100.00
24280;BME280;12395;42.808;23.408;2022-11-15T07:45:27;95404.03;;;6.10;100.00
24280;BME280;12395;42.808;23.408;2022-11-15T07:47:52;95400.75;;;6.08;100.00
24280;BME280;12395;42.808;23.408;2022-11-15T07:50:18;95423.75;;;6.14;100.00
24280;BME280;12395;42.808;23.408;2022-11-15T07:52:44;95416.53;;;6.16;100.00
24280;BME280;12395;42.808;23.408;2022-11-15T07:55:10;95427.69;;;6.18;100.00
24280;BME280;12395;42.808;23.408;2022-11-15T07:57:36;95412.91;;;6.09;100.00
24280;BME280;12395;42.808;23.408;2022-11-15T08:00:02;95414.25;;;6.05;100.00
24280;BME280;12395;42.808;23.408;2022-11-15T08:02:28;95397.81;;;5.95;100.00
24280;BME280;12395;42.808;23.408;2022-11-15T08:04:53;95416.38;;;6.10;100.00
24280;BME280;12395;42.808;23.408;2022-11-15T08:07:19;95412.59;;;6.12;100.00
24280;BME280;12395;42.808;23.408;2022-11-15T08:09:44;95413.72;;;6.18;100.00
24280;BME280;12395;42.808;23.408;2022-11-15T08:12:09;95408.34;;;6.11;100.00
24280;BME280;12395;42.808;23.408;2022-11-15T08:14:35;95418.34;;;6.08;100.00
24280;BME280;12395;42.808;23.408;2022-11-15T08:17:01;95402.09;;;6.04;100.00
24280;BME280;12395;42.808;23.408;2022-11-15T08:19:26;95416.88;;;6.05;100.00
24280;BME280;12395;42.808;23.408;2022-11-15T08:21:52;95419.34;;;6.07;100.00
24280;BME280;12395;42.808;23.408;2022-11-15T08:24:17;95401.59;;;6.09;100.00
24280;BME280;12395;42.808;23.408;2022-11-15T08:26:43;95410.28;;;6.17;100.00
24280;BME280;12395;42.808;23.408;2022-11-15T08:29:08;95396.78;;;6.20;100.00
24280;BME280;12395;42.808;23.408;2022-11-15T08:31:35;95411.88;;;6.27;100.00
24280;BME280;12395;42.808;23.408;2022-11-15T08:34:02;95406.25;;;6.38;100.00
24280;BME280;12395;42.808;23.408;2022-11-15T08:36:28;95411.81;;;6.51;100.00
24280;BME280;12395;42.808;23.408;2022-11-15T08:38:53;95387.84;;;6.46;100.00
24280;BME280;12395;42.808;23.408;2022-11-15T08:41:31;95400.59;;;6.57;100.00
24280;BME280;12395;42.808;23.408;2022-11-15T08:43:57;95382.69;;;6.52;100.00
24280;BME280;12395;42.808;23.408;2022-11-15T08:46:22;95389.06;;;6.66;100.00
24280;BME280;12395;42.808;23.408;2022-11-15T08:48:47;95392.34;;;6.68;100.00
24280;BME280;12395;42.808;23.408;2022-11-15T08:51:13;95381.84;;;6.60;100.00
24280;BME280;12395;42.808;23.408;2022-11-15T08:53:39;95383.47;;;6.69;100.00
24280;BME280;12395;42.808;23.408;2022-11-15T08:56:07;95375.50;;;6.77;100.00
24280;BME280;12395;42.808;23.408;2022-11-15T08:58:33;95385.16;;;6.84;100.00
24280;BME280;12395;42.808;23.408;2022-11-15T09:00:59;95382.91;;;6.81;100.00
24280;BME280;12395;42.808;23.408;2022-11-15T09:03:24;95372.63;;;6.94;100.00
24280;BME280;12395;42.808;23.408;2022-11-15T09:05:57;95369.41;;;7.07;100.00
24280;BME280;12395;42.808;23.408;2022-11-15T09:08:24;95367.72;;;7.14;100.00
24280;BME280;12395;42.808;23.408;2022-11-15T09:10:50;95359.47;;;7.17;100.00
24280;BME280;12395;42.808;23.408;2022-11-15T09:13:15;95361.25;;;7.25;100.00
24280;BME280;12395;42.808;23.408;2022-11-15T09:15:40;95365.31;;;7.27;100.00
24280;BME280;12395;42.808;23.408;2022-11-15T09:18:06;95362.22;;;7.24;100.00
24280;BME280;12395;42.808;23.408;2022-11-15T09:20:31;95355.78;;;7.26;100.00
24280;BME280;12395;42.808;23.408;2022-11-15T09:23:00;95356.75;;;7.25;100.00
24280;BME280;12395;42.808;23.408;2022-11-15T09:25:26;95352.50;;;7.24;100.00
24280;BME280;12395;42.808;23.408;2022-11-15T09:27:52;95346.97;;;7.34;100.00
24280;BME280;12395;42.808;23.408;2022-11-15T09:30:17;95342.41;;;7.50;100.00
24280;BME280;12395;42.808;23.408;2022-11-15T09:32:42;95327.16;;;7.60;100.00
24280;BME280;12395;42.808;23.408;2022-11-15T09:35:08;95342.81;;;7.76;100.00
24280;BME280;12395;42.808;23.408;2022-11-15T09:37:33;95338.28;;;7.70;100.00
24280;BME280;12395;42.808;23.408;2022-11-15T09:39:59;95334.91;;;7.76;100.00
24280;BME280;12395;42.808;23.408;2022-11-15T09:50:21;95323.03;;;8.10;100.00
24280;BME280;12395;42.808;23.408;2022-11-15T09:52:52;95316.94;;;7.95;100.00
24280;BME280;12395;42.808;23.408;2022-11-15T09:55:28;95323.19;;;7.94;100.00
24280;BME280;12395;42.808;23.408;2022-11-15T09:58:28;95311.03;;;7.93;100.00
24280;BME280;12395;42.808;23.408;2022-11-15T10:00:58;95317.91;;;7.94;100.00
24280;BME280;12395;42.808;23.408;2022-11-15T10:03:34;95309.38;;;7.92;100.00
24280;BME280;12395;42.808;23.408;2022-11-15T10:06:02;95294.91;;;7.88;100.00
24280;BME280;12395;42.808;23.408;2022-11-15T10:08:40;95292.28;;;7.88;100.00
24280;BME280;12395;42.808;23.408;2022-11-15T10:11:17;95293.19;;;7.95;100.00
24280;BME280;12395;42.808;23.408;2022-11-15T10:13:44;95293.19;;;8.09;100.00
24280;BME280;12395;42.808;23.408;2022-11-15T10:21:33;95296.00;;;8.22;100.00
24280;BME280;12395;42.808;23.408;2022-11-15T10:24:11;95285.91;;;8.26;100.00
24280;BME280;12395;42.808;23.408;2022-11-15T10:26:36;95290.22;;;8.27;100.00
24280;BME280;12395;42.808;23.408;2022-11-15T10:29:02;95291.28;;;8.32;99.32
24280;BME280;12395;42.808;23.408;2022-11-15T10:31:28;95285.53;;;8.43;99.15
24280;BME280;12395;42.808;23.408;2022-11-15T10:34:15;95278.38;;;8.37;98.60
24280;BME280;12395;42.808;23.408;2022-11-15T10:36:45;95279.97;;;8.38;98.96
24280;BME280;12395;42.808;23.408;2022-11-15T10:39:13;95268.25;;;8.41;98.85
24280;BME280;12395;42.808;23.408;2022-11-15T10:41:40;95269.63;;;8.37;97.85
24280;BME280;12395;42.808;23.408;2022-11-15T10:46:31;95258.94;;;8.45;98.77
24280;BME280;12395;42.808;23.408;2022-11-15T10:54:29;95231.69;;;8.59;97.57
24280;BME280;12395;42.808;23.408;2022-11-15T10:56:58;95243.78;;;8.68;97.70
24280;BME280;12395;42.808;23.408;2022-11-15T10:59:27;95230.56;;;8.68;98.14
24280;BME280;12395;42.808;23.408;2022-11-15T11:01:54;95228.81;;;8.75;97.91
24280;BME280;12395;42.808;23.408;2022-11-15T11:04:19;95204.03;;;8.76;97.99
24280;BME280;12395;42.808;23.408;2022-11-15T11:06:50;95220.50;;;8.99;97.49
24280;BME280;12395;42.808;23.408;2022-11-15T11:11:51;95211.78;;;9.26;97.43
24280;BME280;12395;42.808;23.408;2022-11-15T11:16:50;95215.09;;;9.35;94.77
24280;BME280;12395;42.808;23.408;2022-11-15T11:30:09;95195.69;;;9.49;92.24
24280;BME280;12395;42.808;23.408;2022-11-15T11:49:23;95155.66;;;9.59;91.96
24280;BME280;12395;42.808;23.408;2022-11-15T11:52:08;95152.44;;;9.63;92.24
24280;BME280;12395;42.808;23.408;2022-11-15T11:55:21;95145.47;;;9.56;92.41
24280;BME280;12395;42.808;23.408;2022-11-15T11:57:43;95139.16;;;9.57;92.00
24280;BME280;12395;42.808;23.408;2022-11-15T12:00:18;95131.84;;;9.59;92.33
24280;BME280;12395;42.808;23.408;2022-11-15T12:05:28;95131.97;;;9.44;93.54
24280;BME280;12395;42.808;23.408;2022-11-15T12:08:17;95131.41;;;9.49;93.31
24280;BME280;12395;42.808;23.408;2022-11-15T12:10:48;95123.06;;;9.52;92.88
24280;BME280;12395;42.808;23.408;2022-11-15T12:13:19;95106.56;;;9.50;92.76
24280;BME280;12395;42.808;23.408;2022-11-15T12:15:58;95094.81;;;9.59;93.01
24280;BME280;12395;42.808;23.408;2022-11-15T12:18:24;95111.56;;;9.66;92.47
24280;BME280;12395;42.808;23.408;2022-11-15T12:20:55;95094.81;;;9.59;93.28
24280;BME280;12395;42.808;23.408;2022-11-15T12:23:27;95100.91;;;9.53;94.31
24280;BME280;12395;42.808;23.408;2022-11-15T12:26:10;95091.50;;;9.44;94.91
24280;BME280;12395;42.808;23.408;2022-11-15T12:29:09;95095.13;;;9.36;94.85
24280;BME280;12395;42.808;23.408;2022-11-15T12:31:41;95092.19;;;9.24;95.91
24280;BME280;12395;42.808;23.408;2022-11-15T12:36:48;95079.97;;;9.17;97.31
24280;BME280;12395;42.808;23.408;2022-11-15T12:39:15;95087.06;;;9.16;96.85
24280;BME280;12395;42.808;23.408;2022-11-15T12:41:43;95074.19;;;9.07;96.81
24280;BME280;12395;42.808;23.408;2022-11-15T12:44:58;95073.41;;;9.06;97.25
24280;BME280;12395;42.808;23.408;2022-11-15T12:47:25;95071.38;;;9.08;97.67
24280;BME280;12395;42.808;23.408;2022-11-15T12:49:52;95069.09;;;9.05;97.76
24280;BME280;12395;42.808;23.408;2022-11-15T12:52:18;95059.94;;;9.01;97.30
24280;BME280;12395;42.808;23.408;2022-11-15T12:54:55;95064.81;;;8.98;97.37
24280;BME280;12395;42.808;23.408;2022-11-15T13:00:01;95061.88;;;8.86;98.10
24280;BME280;12395;42.808;23.408;2022-11-15T13:22:49;95022.06;;;8.94;99.36
24280;BME280;12395;42.808;23.408;2022-11-15T13:28:36;95013.78;;;8.97;99.57
24280;BME280;12395;42.808;23.408;2022-11-15T13:31:17;95020.88;;;8.97;100.00
24280;BME280;12395;42.808;23.408;2022-11-15T13:33:44;95009.47;;;8.96;100.00
24280;BME280;12395;42.808;23.408;2022-11-15T13:36:24;95011.94;;;8.98;100.00
24280;BME280;12395;42.808;23.408;2022-11-15T13:39:02;95008.06;;;9.00;99.97
24280;BME280;12395;42.808;23.408;2022-11-15T13:41:31;95000.97;;;9.01;99.85
24280;BME280;12395;42.808;23.408;2022-11-15T13:43:58;95019.75;;;9.12;99.49
24280;BME280;12395;42.808;23.408;2022-11-15T13:46:31;95009.38;;;9.11;98.15
24280;BME280;12395;42.808;23.408;2022-11-15T13:49:09;94997.38;;;9.08;98.01
24280;BME280;12395;42.808;23.408;2022-11-15T13:51:47;95013.22;;;9.08;97.51
24280;BME280;12395;42.808;23.408;2022-11-15T13:54:16;95016.81;;;9.01;98.21
24280;BME280;12395;42.808;23.408;2022-11-15T13:56:51;95009.41;;;8.83;98.46
24280;BME280;12395;42.808;23.408;2022-11-15T13:59:28;95019.97;;;8.83;98.91
24280;BME280;12395;42.808;23.408;2022-11-15T14:01:55;95006.88;;;8.69;99.23
24280;BME280;12395;42.808;23.408;2022-11-15T14:04:23;95020.53;;;8.72;99.76
24280;BME280;12395;42.808;23.408;2022-11-15T14:06:55;95014.56;;;8.64;99.77
24280;BME280;12395;42.808;23.408;2022-11-15T14:09:37;95020.81;;;8.56;100.00
24280;BME280;12395;42.808;23.408;2022-11-15T14:12:26;95012.41;;;8.46;100.00
24280;BME280;12395;42.808;23.408;2022-11-15T14:14:52;94999.16;;;8.39;100.00
24280;BME280;12395;42.808;23.408;2022-11-15T14:17:34;95001.38;;;8.36;100.00
24280;BME280;12395;42.808;23.408;2022-11-15T14:20:00;95006.88;;;8.41;100.00
24280;BME280;12395;42.808;23.408;2022-11-15T14:22:27;95006.88;;;8.41;100.00
24280;BME280;12395;42.808;23.408;2022-11-15T14:25:17;94991.56;;;8.30;100.00
24280;BME280;12395;42.808;23.408;2022-11-15T14:28:07;94991.94;;;8.27;100.00
24280;BME280;12395;42.808;23.408;2022-11-15T14:30:30;94985.75;;;8.20;100.00
24280;BME280;12395;42.808;23.408;2022-11-15T14:32:55;94975.97;;;8.14;100.00
24280;BME280;12395;42.808;23.408;2022-11-15T14:35:22;94984.50;;;8.16;100.00
24280;BME280;12395;42.808;23.408;2022-11-15T14:37:48;94984.25;;;8.11;100.00
24280;BME280;12395;42.808;23.408;2022-11-15T14:40:17;94982.53;;;7.97;100.00
24280;BME280;12395;42.808;23.408;2022-11-15T14:42:45;94978.00;;;7.91;100.00
24280;BME280;12395;42.808;23.408;2022-11-15T14:45:16;94991.19;;;7.91;100.00
24280;BME280;12395;42.808;23.408;2022-11-15T14:47:42;94990.66;;;7.80;100.00
24280;BME280;12395;42.808;23.408;2022-11-15T14:50:26;94995.22;;;7.65;100.00
24280;BME280;12395;42.808;23.408;2022-11-15T14:52:53;94980.25;;;7.51;100.00
24280;BME280;12395;42.808;23.408;2022-11-15T14:55:24;94980.09;;;7.38;100.00
24280;BME280;12395;42.808;23.408;2022-11-15T14:57:50;94985.84;;;7.27;100.00
24280;BME280;12395;42.808;23.408;2022-11-15T15:00:18;94982.97;;;7.22;100.00